Time;durP1;ratioP1;P1;durP2;ratioP2;P2;SDS_P1;SDS_P2;PMS_P1;PMS_P2;Temp;Humidity;BMP_temperature;BMP_pressure;BME280_temperature;BME280_humidity;BME280_pressure;Samples;Min_cycle;Max_cycle;Signal;HPM_P1;HPM_P2
2022/06/27 00:00:20;;;;;;;5.50;1.85;;;;;;;23.61;48.63;98882.69;5013043;28;20044;-71
2022/06/27 00:02:45;;;;;;;3.53;1.80;;;;;;;23.59;48.84;98882.06;4996713;28;20556;-71
2022/06/27 00:05:11;;;;;;;2.30;1.75;;;;;;;23.53;48.85;98883.69;5013044;28;20054;-72
2022/06/27 00:07:37;;;;;;;4.28;1.80;;;;;;;23.56;49.01;98879.78;5012652;28;20481;-72
2022/06/27 00:10:03;;;;;;;2.67;1.73;;;;;;;23.54;49.14;98884.50;5012509;28;20115;-72
2022/06/27 00:12:29;;;;;;;3.00;1.88;;;;;;;23.50;49.15;98881.41;5012946;28;20029;-72
2022/06/27 00:14:54;;;;;;;3.97;2.05;;;;;;;23.51;49.19;98888.38;4997021;28;20488;-71
2022/06/27 00:17:20;;;;;;;3.35;1.98;;;;;;;23.52;49.51;98890.03;5013164;28;20481;-72
2022/06/27 00:19:45;;;;;;;3.10;1.90;;;;;;;23.52;49.53;98884.69;4996133;28;20053;-72
2022/06/27 00:22:11;;;;;;;3.33;1.77;;;;;;;23.52;49.41;98884.69;5014022;28;20469;-72
2022/06/27 00:24:36;;;;;;;3.75;1.70;;;;;;;23.56;49.48;98882.44;4980261;28;20029;-72
2022/06/27 00:27:02;;;;;;;4.82;2.10;;;;;;;23.52;49.57;98883.88;5012785;28;20033;-73
2022/06/27 00:29:27;;;;;;;3.92;2.10;;;;;;;23.57;49.61;98892.91;5012608;28;20053;-73
2022/06/27 00:31:53;;;;;;;2.65;1.90;;;;;;;23.53;49.40;98877.50;4996285;28;20042;-72
2022/06/27 00:34:18;;;;;;;2.80;2.00;;;;;;;23.55;49.57;98886.16;5012329;28;20076;-72
2022/06/27 00:36:44;;;;;;;2.63;1.85;;;;;;;23.56;49.35;98887.78;5013792;28;20436;-72
2022/06/27 00:39:09;;;;;;;2.10;1.73;;;;;;;23.55;49.46;98878.16;4996241;28;20488;-72
2022/06/27 00:41:35;;;;;;;2.95;1.90;;;;;;;23.53;49.53;98883.69;5012390;28;20049;-73
2022/06/27 00:44:01;;;;;;;3.50;2.17;;;;;;;23.55;49.39;98886.16;5012190;28;20133;-72
2022/06/27 00:46:28;;;;;;;2.20;1.80;;;;;;;23.49;49.42;98885.09;5013577;28;20030;-72
2022/06/27 00:48:53;;;;;;;5.53;2.10;;;;;;;23.46;49.68;98890.81;5012677;28;20462;-72
2022/06/27 00:51:19;;;;;;;3.03;2.10;;;;;;;23.44;49.41;98885.69;5012267;28;20064;-72
2022/06/27 00:53:44;;;;;;;5.97;2.35;;;;;;;23.43;49.88;98880.56;4996016;28;20042;-72
2022/06/27 00:56:10;;;;;;;2.85;2.00;;;;;;;23.40;50.01;98883.59;4995720;28;20037;-72
2022/06/27 00:58:36;;;;;;;4.05;2.13;;;;;;;23.40;49.86;98875.63;5012477;28;20508;-72
2022/06/27 01:01:02;;;;;;;2.50;1.80;;;;;;;23.37;49.95;98878.66;5013517;28;20029;-72
2022/06/27 01:03:27;;;;;;;3.25;2.13;;;;;;;23.35;50.01;98875.38;4995688;28;20552;-72
2022/06/27 01:05:53;;;;;;;3.80;1.85;;;;;;;23.33;50.09;98875.59;5011966;28;20037;-71
2022/06/27 01:08:21;;;;;;;3.72;2.10;;;;;;;23.33;50.26;98872.09;5012979;28;20076;-71
2022/06/27 01:10:47;;;;;;;3.17;1.73;;;;;;;23.33;49.95;98878.25;5012263;28;20022;-72
2022/06/27 01:13:12;;;;;;;4.40;2.20;;;;;;;23.30;49.84;98874.13;5011705;28;20048;-71
2022/06/27 01:15:38;;;;;;;2.53;1.88;;;;;;;23.24;50.05;98868.75;5012146;28;20448;-71
2022/06/27 01:18:04;;;;;;;4.72;2.00;;;;;;;23.24;49.86;98858.91;4995375;28;20030;-71
2022/06/27 01:20:29;;;;;;;2.67;1.80;;;;;;;23.28;50.05;98867.38;5011905;28;20025;-72
2022/06/27 01:22:54;;;;;;;3.95;2.00;;;;;;;23.24;49.88;98866.91;4994760;28;20498;-71
2022/06/27 01:25:20;;;;;;;3.55;2.00;;;;;;;23.22;49.94;98863.63;5011582;28;20095;-72
2022/06/27 01:27:46;;;;;;;4.97;2.00;;;;;;;23.15;50.23;98854.81;5011685;28;20117;-72
2022/06/27 01:30:12;;;;;;;4.18;2.15;;;;;;;23.17;50.49;98857.25;5011753;28;20480;-71
2022/06/27 01:32:37;;;;;;;3.58;2.10;;;;;;;23.18;50.55;98856.22;5011571;28;20035;-72
2022/06/27 01:35:03;;;;;;;3.65;2.10;;;;;;;23.21;50.11;98861.97;5011675;28;20025;-71
2022/06/27 01:37:29;;;;;;;3.92;1.80;;;;;;;23.19;50.34;98855.22;5011363;28;20477;-71
2022/06/27 01:40:00;;;;;;;3.45;1.95;;;;;;;23.15;50.28;98856.63;5012694;28;20108;-71
2022/06/27 01:42:26;;;;;;;3.72;2.10;;;;;;;23.15;50.38;98857.47;4996491;28;20521;-71
2022/06/27 01:44:51;;;;;;;3.38;1.90;;;;;;;23.17;50.09;98859.94;5011343;28;20109;-71
2022/06/27 01:47:16;;;;;;;4.25;2.10;;;;;;;23.13;50.54;98862.13;4994965;28;20476;-71
2022/06/27 01:49:42;;;;;;;5.22;2.65;;;;;;;23.13;50.39;98864.81;4995074;28;20061;-72
2022/06/27 01:52:07;;;;;;;3.60;2.00;;;;;;;23.10;50.60;98859.88;5011220;28;20045;-71
2022/06/27 01:54:33;;;;;;;3.03;2.08;;;;;;;23.10;50.72;98866.03;5011363;28;20072;-71
2022/06/27 01:56:59;;;;;;;2.80;1.77;;;;;;;23.09;50.81;98871.56;4995256;28;20025;-71
2022/06/27 01:59:27;;;;;;;4.28;2.33;;;;;;;23.06;50.65;98867.41;5011210;28;20175;-71
2022/06/27 02:01:53;;;;;;;2.63;1.95;;;;;;;23.05;50.85;98864.94;5011541;28;20508;-72
2022/06/27 02:04:18;;;;;;;3.92;2.00;;;;;;;23.05;50.77;98848.94;5010944;28;20038;-72
2022/06/27 02:06:44;;;;;;;3.33;2.10;;;;;;;23.07;50.77;98854.91;5011367;28;20061;-72
2022/06/27 02:09:11;;;;;;;4.43;2.30;;;;;;;23.01;50.61;98858.34;5012464;28;20050;-72
2022/06/27 02:11:38;;;;;;;5.38;2.05;;;;;;;22.97;50.61;98851.78;5011004;28;20030;-72
2022/06/27 02:14:04;;;;;;;4.18;2.00;;;;;;;22.91;50.65;98854.19;5011410;28;20521;-72
2022/06/27 02:16:29;;;;;;;3.03;2.08;;;;;;;22.87;51.07;98852.94;5011209;28;20022;-72
2022/06/27 02:18:55;;;;;;;3.38;1.98;;;;;;;22.86;50.97;98856.59;5011240;28;20033;-72
2022/06/27 02:21:22;;;;;;;4.28;2.00;;;;;;;22.85;50.94;98854.97;5010898;28;20042;-72
2022/06/27 02:23:47;;;;;;;4.65;2.40;;;;;;;22.80;51.05;98861.88;5011117;28;20149;-72
2022/06/27 02:26:14;;;;;;;3.50;2.40;;;;;;;22.78;51.03;98864.72;4995418;28;20056;-72
2022/06/27 02:28:39;;;;;;;3.17;2.10;;;;;;;22.80;51.17;98860.03;4994680;28;20066;-71
2022/06/27 02:31:06;;;;;;;3.38;2.38;;;;;;;22.85;50.87;98865.63;5010980;28;20064;-72
2022/06/27 02:33:39;;;;;;;4.00;2.38;;;;;;;22.87;50.89;98860.91;4997094;28;20066;-72
2022/06/27 02:36:05;;;;;;;3.35;1.98;;;;;;;22.83;51.05;98861.50;5014897;28;20048;-72
2022/06/27 02:38:31;;;;;;;3.80;2.20;;;;;;;22.83;50.96;98864.16;5014612;28;20048;-72
2022/06/27 02:40:57;;;;;;;4.30;2.08;;;;;;;22.81;50.94;98869.66;4998041;28;20046;-72
2022/06/27 02:43:23;;;;;;;4.10;2.00;;;;;;;22.80;51.03;98865.34;4997949;28;20045;-72
2022/06/27 02:45:48;;;;;;;4.60;2.30;;;;;;;22.86;51.11;98866.44;5014597;28;20034;-72
2022/06/27 02:48:16;;;;;;;5.50;2.20;;;;;;;22.90;50.97;98875.69;4998201;28;20060;-71
2022/06/27 02:50:42;;;;;;;4.82;2.03;;;;;;;22.92;50.61;98870.97;5014633;28;20029;-75
2022/06/27 02:53:09;;;;;;;3.80;2.10;;;;;;;22.92;50.62;98873.66;5014594;28;20049;-71
2022/06/27 02:55:37;;;;;;;2.83;2.03;;;;;;;22.94;50.52;98879.59;5014723;28;20405;-71
2022/06/27 02:58:16;;;;;;;3.42;1.90;;;;;;;22.98;50.11;98878.19;4998376;28;20054;-71
2022/06/27 03:00:42;;;;;;;4.60;2.28;;;;;;;23.09;50.35;98874.22;4998182;28;20413;-72
2022/06/27 03:03:07;;;;;;;3.67;2.00;;;;;;;23.29;49.73;98872.50;4998130;28;20097;-72
2022/06/27 03:05:33;;;;;;;4.10;2.00;;;;;;;23.64;49.05;98871.63;5014036;28;20040;-72
2022/06/27 03:07:59;;;;;;;3.42;2.30;;;;;;;23.95;48.00;98876.50;5014966;28;20041;-72
2022/06/27 03:10:24;;;;;;;5.68;2.08;;;;;;;24.33;47.24;98872.47;5014184;28;20128;-71
2022/06/27 03:12:50;;;;;;;4.25;2.10;;;;;;;24.61;46.27;98866.19;5015385;28;20608;-71
2022/06/27 03:15:15;;;;;;;2.58;2.00;;;;;;;24.98;45.23;98879.94;5013608;28;20050;-71
2022/06/27 03:17:41;;;;;;;5.45;1.83;;;;;;;25.31;44.33;98871.88;5013884;28;20413;-73
2022/06/27 03:20:07;;;;;;;3.58;2.42;;;;;;;25.88;43.66;98884.63;5013772;28;20069;-74
2022/06/27 03:22:32;;;;;;;3.50;2.15;;;;;;;26.29;42.27;98876.19;5014077;28;20486;-74
2022/06/27 03:24:58;;;;;;;5.07;1.83;;;;;;;26.42;42.09;98882.50;5013879;28;20049;-72
2022/06/27 03:27:23;;;;;;;6.32;2.20;;;;;;;26.44;41.91;98877.75;5015222;28;20082;-73
2022/06/27 03:29:49;;;;;;;9.38;1.92;;;;;;;26.72;41.19;98880.03;5013832;28;20444;-76
2022/06/27 03:32:14;;;;;;;4.75;2.03;;;;;;;27.24;40.32;98872.53;5015083;28;20044;-76
2022/06/27 03:34:40;;;;;;;2.20;1.70;;;;;;;27.68;39.34;98877.06;5013794;28;20108;-79
2022/06/27 03:37:07;;;;;;;9.90;2.22;;;;;;;28.29;39.40;98880.56;5015186;28;20397;-71
2022/06/27 03:39:32;;;;;;;4.00;1.83;;;;;;;28.69;37.87;98886.19;5014862;28;20052;-76
2022/06/27 03:41:58;;;;;;;4.32;1.85;;;;;;;28.92;36.85;98886.44;5013534;28;20042;-74
2022/06/27 03:44:23;;;;;;;8.23;1.83;;;;;;;29.38;36.20;98871.34;4996347;28;20062;-74
2022/06/27 03:46:49;;;;;;;3.60;1.83;;;;;;;29.75;35.36;98885.28;5013405;28;20038;-75
2022/06/27 03:51:58;;;;;;;4.10;2.00;;;;;;;30.17;34.43;98894.19;5013906;28;20068;-74
2022/06/27 03:54:24;;;;;;;6.78;1.92;;;;;;;30.92;33.57;98886.84;5013651;28;20501;-75
2022/06/27 03:56:49;;;;;;;6.13;1.90;;;;;;;31.17;32.80;98883.72;5013347;28;20073;-74
2022/06/27 03:59:15;;;;;;;5.70;2.00;;;;;;;31.82;31.49;98890.25;5013319;28;20516;-75
2022/06/27 04:01:40;;;;;;;4.13;1.95;;;;;;;32.50;30.87;98883.63;5014339;28;20466;-75
2022/06/27 04:04:06;;;;;;;3.40;1.70;;;;;;;32.89;30.03;98886.91;5013186;28;20061;-74
2022/06/27 04:06:32;;;;;;;3.08;1.83;;;;;;;33.49;29.07;98889.44;4996721;28;20469;-74
2022/06/27 04:08:58;;;;;;;6.82;1.85;;;;;;;34.04;28.17;98879.91;5013996;28;20045;-74
2022/06/27 04:11:23;;;;;;;4.72;1.73;;;;;;;34.58;27.14;98888.66;4997059;28;20033;-74
2022/06/27 04:13:49;;;;;;;4.85;1.50;;;;;;;35.10;26.47;98890.25;5012681;28;20050;-74
2022/06/27 04:16:15;;;;;;;4.27;1.47;;;;;;;35.70;25.71;98886.81;5014049;28;20623;-75
2022/06/27 04:18:41;;;;;;;6.28;1.70;;;;;;;36.22;24.67;98890.88;5012776;28;20313;-74
2022/06/27 04:21:06;;;;;;;3.78;1.40;;;;;;;36.79;23.59;98898.63;5012816;28;20041;-74
2022/06/27 04:23:32;;;;;;;2.30;1.20;;;;;;;37.25;23.05;98894.66;5012904;28;20526;-74
2022/06/27 04:25:58;;;;;;;2.50;1.52;;;;;;;37.70;22.50;98899.84;4996685;28;20033;-74
2022/06/27 04:28:23;;;;;;;4.68;1.30;;;;;;;38.17;21.98;98889.94;4996426;28;20100;-74
2022/06/27 04:30:49;;;;;;;3.75;1.40;;;;;;;38.61;21.60;98891.41;5012728;28;20063;-74
2022/06/27 04:33:15;;;;;;;2.22;1.30;;;;;;;39.05;20.83;98892.03;5012775;28;20139;-75
2022/06/27 04:35:46;;;;;;;4.82;1.20;;;;;;;39.58;20.66;98899.78;5013838;28;20412;-74
2022/06/27 04:38:17;;;;;;;4.05;1.20;;;;;;;40.07;20.05;98894.59;5012999;28;20412;-73
2022/06/27 04:40:43;;;;;;;4.30;1.50;;;;;;;40.54;19.49;98893.53;5012720;28;20022;-74
2022/06/27 04:43:08;;;;;;;4.15;1.30;;;;;;;40.87;19.07;98899.53;5012457;28;20433;-73
2022/06/27 04:45:34;;;;;;;3.40;1.25;;;;;;;41.32;18.61;98898.59;5012452;28;20106;-74
2022/06/27 04:48:00;;;;;;;4.47;1.52;;;;;;;41.67;18.11;98891.28;5013563;28;20057;-75
2022/06/27 04:50:26;;;;;;;5.57;1.10;;;;;;;42.03;17.68;98898.41;5012555;28;20041;-75
2022/06/27 04:52:52;;;;;;;2.13;1.00;;;;;;;42.41;17.17;98891.50;4996086;28;20168;-75
2022/06/27 04:55:17;;;;;;;4.30;1.10;;;;;;;42.75;16.55;98892.59;5012163;28;20029;-74
2022/06/27 04:57:43;;;;;;;2.13;0.98;;;;;;;43.05;16.16;98901.69;5012418;28;20138;-75
2022/06/27 05:00:14;;;;;;;4.35;1.13;;;;;;;43.41;15.91;98908.63;5011991;28;20540;-75
2022/06/27 05:02:40;;;;;;;4.57;1.30;;;;;;;43.75;15.67;98900.53;5012438;28;20026;-74
2022/06/27 05:05:06;;;;;;;4.97;1.30;;;;;;;44.14;15.53;98903.94;5012205;28;20030;-75
2022/06/27 05:07:32;;;;;;;4.22;1.00;;;;;;;44.47;15.08;98905.94;5012983;28;20297;-75
2022/06/27 05:09:58;;;;;;;3.07;1.03;;;;;;;44.88;15.21;98906.97;5011925;28;20085;-75
2022/06/27 05:12:24;;;;;;;3.47;1.23;;;;;;;45.18;14.74;98907.59;5011848;28;20077;-75
2022/06/27 05:14:52;;;;;;;3.58;1.20;;;;;;;45.57;14.69;98910.00;5012515;28;20033;-74
2022/06/27 05:17:18;;;;;;;3.67;1.25;;;;;;;45.91;13.93;98914.22;5011894;28;20030;-74
2022/06/27 05:19:44;;;;;;;6.63;1.30;;;;;;;46.07;14.02;98911.50;5013088;28;20029;-74
2022/06/27 05:22:10;;;;;;;5.35;1.10;;;;;;;46.44;14.14;98903.09;5011975;28;20045;-74
2022/06/27 05:24:35;;;;;;;5.38;0.85;;;;;;;46.77;13.99;98907.53;4995651;28;20083;-75
2022/06/27 05:27:01;;;;;;;3.93;0.90;;;;;;;46.97;13.76;98910.41;4995474;28;20065;-77
2022/06/27 05:29:26;;;;;;;3.43;1.10;;;;;;;47.34;13.09;98919.22;5011670;28;20026;-76
2022/06/27 05:31:52;;;;;;;2.93;1.00;;;;;;;47.52;13.08;98922.38;5011649;28;20048;-76
2022/06/27 05:34:17;;;;;;;5.97;1.23;;;;;;;47.71;12.91;98918.06;5012909;28;20034;-75
2022/06/27 05:36:43;;;;;;;3.73;1.10;;;;;;;47.89;12.46;98916.50;5011661;28;20473;-75
2022/06/27 05:39:09;;;;;;;6.17;1.20;;;;;;;48.09;12.22;98911.78;5011496;28;20026;-75
2022/06/27 05:41:37;;;;;;;2.77;1.00;;;;;;;48.26;11.93;98912.50;5012141;28;20636;-74
2022/06/27 05:44:03;;;;;;;2.08;1.08;;;;;;;48.36;11.87;98926.56;4995465;28;20100;-75
2022/06/27 05:46:28;;;;;;;3.07;1.03;;;;;;;48.40;11.67;98918.31;5011718;28;20026;-75
2022/06/27 05:48:55;;;;;;;2.90;1.10;;;;;;;48.49;11.72;98920.84;5012921;28;20022;-75
2022/06/27 05:51:22;;;;;;;3.33;1.05;;;;;;;48.47;11.25;98924.00;5012911;28;20025;-75
2022/06/27 05:53:48;;;;;;;;;;;;;;;48.30;11.44;98927.19;5011903;28;20049;-75
2022/06/27 05:56:14;;;;;;;2.47;0.98;;;;;;;48.44;11.05;98924.75;5012458;28;19952;-75
2022/06/27 05:58:41;;;;;;;5.57;1.10;;;;;;;48.43;11.33;98920.38;4995270;28;20107;-73
2022/06/27 06:01:09;;;;;;;4.05;1.02;;;;;;;48.42;11.01;98929.84;5012454;28;20117;-75
2022/06/27 06:03:34;;;;;;;2.25;1.02;;;;;;;48.40;11.16;98923.84;5011077;28;20053;-76
2022/06/27 06:06:00;;;;;;;2.42;1.20;;;;;;;48.34;11.31;98931.63;5011321;28;20029;-74
2022/06/27 06:08:26;;;;;;;3.95;1.25;;;;;;;48.35;11.52;98929.69;5012417;28;20525;-75
2022/06/27 06:10:52;;;;;;;9.10;1.30;;;;;;;48.39;11.61;98925.00;5015440;28;20030;-75
2022/06/27 06:13:18;;;;;;;3.42;1.10;;;;;;;48.36;10.93;98923.78;4999473;28;20116;-74
2022/06/27 06:15:45;;;;;;;2.33;1.10;;;;;;;48.40;11.47;98923.06;4999032;28;20042;-75
2022/06/27 06:18:11;;;;;;;4.68;1.30;;;;;;;48.42;11.48;98929.84;4999413;28;20025;-75
2022/06/27 06:20:37;;;;;;;1.92;0.90;;;;;;;48.40;11.35;98928.59;5015222;28;20030;-74
2022/06/27 06:23:03;;;;;;;2.42;1.00;;;;;;;48.32;11.14;98919.34;5016446;28;20377;-76
2022/06/27 06:25:29;;;;;;;5.82;1.20;;;;;;;48.22;11.20;98922.69;5015096;28;20037;-75
2022/06/27 06:28:01;;;;;;;2.92;1.08;;;;;;;48.14;11.59;98930.88;5014774;28;20041;-76
2022/06/27 06:30:29;;;;;;;4.60;1.50;;;;;;;48.10;11.51;98929.19;5000001;28;20081;-76
2022/06/27 06:32:56;;;;;;;2.75;1.23;;;;;;;48.04;11.59;98927.84;5015047;28;20053;-75
2022/06/27 06:35:22;;;;;;;5.60;1.25;;;;;;;48.03;11.80;98918.75;5015017;28;20131;-76
2022/06/27 06:37:48;;;;;;;4.63;1.20;;;;;;;47.97;11.61;98917.44;4982416;28;20452;-75
2022/06/27 06:40:16;;;;;;;2.45;1.13;;;;;;;47.94;11.66;98932.81;4997771;28;20113;-76
2022/06/27 06:42:41;;;;;;;6.63;1.30;;;;;;;47.88;12.03;98923.19;5016017;28;20038;-75
2022/06/27 06:45:07;;;;;;;2.00;1.10;;;;;;;47.78;11.82;98921.00;4997839;28;20050;-75
2022/06/27 06:47:33;;;;;;;2.78;0.98;;;;;;;47.72;12.35;98920.47;5014923;28;20113;-75
2022/06/27 06:49:59;;;;;;;3.70;1.10;;;;;;;47.62;11.79;98924.59;5014638;28;20070;-75
2022/06/27 06:52:24;;;;;;;2.93;1.03;;;;;;;47.51;12.46;98925.50;5014681;28;20441;-76
2022/06/27 06:54:50;;;;;;;4.23;1.57;;;;;;;47.42;12.27;98923.75;5016004;28;20092;-75
2022/06/27 06:57:16;;;;;;;7.43;1.23;;;;;;;47.37;12.63;98926.78;5015762;28;20509;-75
2022/06/27 06:59:41;;;;;;;7.93;1.80;;;;;;;47.24;12.81;98926.06;5015626;28;20034;-76
2022/06/27 07:02:07;;;;;;;4.80;1.13;;;;;;;47.10;12.56;98922.97;5014421;28;20050;-77
2022/06/27 07:04:33;;;;;;;4.88;1.42;;;;;;;46.98;12.97;98929.38;4998112;28;20034;-75
2022/06/27 07:07:00;;;;;;;5.13;1.10;;;;;;;46.90;12.74;98935.84;5013875;28;20034;-76
2022/06/27 07:09:25;;;;;;;3.58;1.40;;;;;;;46.79;13.18;98938.34;5015302;28;20093;-77
2022/06/27 07:11:51;;;;;;;2.77;1.30;;;;;;;46.67;13.35;98936.47;4981253;28;20061;-75
2022/06/27 07:14:17;;;;;;;3.75;1.00;;;;;;;46.53;13.18;98936.06;5013894;28;20041;-75
2022/06/27 07:16:46;;;;;;;2.75;1.00;;;;;;;46.41;13.58;98936.91;4981801;28;20037;-76
2022/06/27 07:19:13;;;;;;;2.85;1.17;;;;;;;46.30;13.53;98933.84;4997813;28;20030;-75
2022/06/27 07:21:39;;;;;;;4.50;1.20;;;;;;;46.18;14.00;98934.72;5014053;28;20108;-76
2022/06/27 07:24:08;;;;;;;4.17;0.90;;;;;;;46.09;14.00;98947.81;4997331;28;20088;-76
2022/06/27 07:26:35;;;;;;;3.85;1.10;;;;;;;45.97;14.18;98936.81;4998242;28;20045;-77
2022/06/27 07:29:03;;;;;;;3.35;1.30;;;;;;;45.81;13.90;98929.28;4997721;28;20509;-75
2022/06/27 07:31:28;;;;;;;3.97;1.10;;;;;;;45.74;14.43;98937.31;4998013;28;20128;-75
2022/06/27 07:33:54;;;;;;;4.43;1.37;;;;;;;45.65;14.42;98934.66;4997607;28;20471;-74
2022/06/27 07:36:20;;;;;;;3.37;1.03;;;;;;;45.56;14.35;98936.75;5013258;28;20048;-77
2022/06/27 07:38:46;;;;;;;6.82;1.00;;;;;;;45.47;14.45;98944.38;4997444;28;20072;-75
2022/06/27 07:41:13;;;;;;;;;;;;;;;45.30;14.42;98940.66;5014154;28;20504;-75
2022/06/27 07:43:39;;;;;;;4.85;1.10;;;;;;;44.56;15.38;98939.69;5013558;28;20289;-74
2022/06/27 07:46:05;;;;;;;3.13;1.10;;;;;;;43.62;16.33;98941.66;5013104;28;20042;-75
2022/06/27 07:48:30;;;;;;;3.77;1.13;;;;;;;43.16;16.48;98948.81;4997446;28;20288;-74
2022/06/27 07:50:56;;;;;;;3.47;1.30;;;;;;;42.39;17.17;98952.16;4997168;28;20496;-74
2022/06/27 07:53:22;;;;;;;7.33;1.67;;;;;;;41.69;17.46;98945.78;4997163;28;20061;-76
2022/06/27 07:56:06;;;;;;;2.23;1.20;;;;;;;40.92;18.68;98945.94;4980544;28;20112;-74
2022/06/27 07:58:33;;;;;;;3.13;1.40;;;;;;;40.45;19.08;98932.56;5013649;28;20062;-76
2022/06/27 08:01:00;;;;;;;4.93;1.38;;;;;;;40.13;19.69;98937.09;4996750;28;20065;-75
2022/06/27 08:03:44;;;;;;;6.32;1.48;;;;;;;39.54;20.04;98930.72;4997263;28;20049;-76
2022/06/27 08:06:24;;;;;;;2.55;1.40;;;;;;;39.01;20.57;98940.13;4999979;28;20503;-75
2022/06/27 08:08:54;;;;;;;5.05;1.50;;;;;;;38.49;21.30;98940.97;5013097;28;20133;-74
2022/06/27 08:11:22;;;;;;;6.32;1.40;;;;;;;38.08;21.83;98936.13;5013506;28;20037;-75
2022/06/27 08:13:48;;;;;;;2.22;1.38;;;;;;;38.01;21.88;98939.19;4996954;28;20034;-75
2022/06/27 08:16:14;;;;;;;5.43;1.52;;;;;;;38.24;21.58;98935.91;5013375;28;20040;-76
2022/06/27 08:18:42;;;;;;;5.35;1.40;;;;;;;38.50;21.23;98923.50;4996756;28;20038;-75
2022/06/27 08:21:08;;;;;;;6.13;1.42;;;;;;;38.59;21.39;98923.63;4997144;28;20041;-74
2022/06/27 08:23:37;;;;;;;5.75;1.60;;;;;;;38.81;21.05;98919.47;5013111;28;20032;-74
2022/06/27 08:26:06;;;;;;;3.13;1.23;;;;;;;38.99;21.30;98920.53;5013537;28;20029;-75
2022/06/27 08:28:33;;;;;;;6.35;1.42;;;;;;;39.11;21.34;98933.69;4997042;28;20041;-75
2022/06/27 08:31:01;;;;;;;4.53;1.23;;;;;;;39.22;20.84;98921.47;4979769;28;20129;-74
2022/06/27 08:33:28;;;;;;;2.78;1.50;;;;;;;39.33;21.08;98927.56;5014204;28;20531;-76
2022/06/27 08:35:56;;;;;;;5.32;1.40;;;;;;;39.42;20.88;98918.34;4996527;28;20041;-75
2022/06/27 08:38:22;;;;;;;5.60;1.40;;;;;;;39.65;20.88;98923.09;5013063;28;20033;-75
2022/06/27 08:40:50;;;;;;;2.75;1.30;;;;;;;39.72;20.61;98921.59;5012461;28;20037;-75
2022/06/27 08:43:16;;;;;;;5.85;1.75;;;;;;;39.86;20.27;98927.03;5013840;28;20081;-73
2022/06/27 08:45:43;;;;;;;3.72;1.30;;;;;;;39.92;20.61;98920.34;5012387;28;20030;-74
2022/06/27 08:48:09;;;;;;;4.28;1.55;;;;;;;39.95;20.64;98929.84;5012825;28;20049;-74
2022/06/27 08:50:35;;;;;;;3.03;1.20;;;;;;;40.01;20.38;98925.09;5012592;28;20069;-74
2022/06/27 08:53:01;;;;;;;3.28;1.30;;;;;;;39.99;20.34;98909.00;4996224;28;20034;-75
2022/06/27 08:55:26;;;;;;;6.53;1.20;;;;;;;40.01;20.06;98917.72;5012221;28;20046;-75
2022/06/27 08:57:52;;;;;;;4.07;1.10;;;;;;;39.96;19.95;98912.31;5012629;28;20034;-75
2022/06/27 09:00:18;;;;;;;2.88;1.17;;;;;;;40.02;20.08;98907.59;5012281;28;20058;-75
2022/06/27 09:02:44;;;;;;;2.67;1.10;;;;;;;39.88;20.11;98905.66;5012586;28;20075;-77
2022/06/27 09:05:15;;;;;;;5.85;1.30;;;;;;;39.77;20.10;98913.31;5011761;28;20042;-75
2022/06/27 09:07:46;;;;;;;3.75;1.40;;;;;;;39.70;20.38;98918.34;5011989;28;20061;-76
2022/06/27 09:10:27;;;;;;;1.90;1.10;;;;;;;39.53;20.08;98912.72;4979896;28;20091;-75
2022/06/27 09:12:56;;;;;;;2.75;1.17;;;;;;;39.42;20.21;98912.88;5013462;28;20057;-75
2022/06/27 09:15:25;;;;;;;1.88;1.08;;;;;;;39.28;20.36;98908.53;5012032;28;20034;-74
2022/06/27 09:18:02;;;;;;;4.13;1.30;;;;;;;39.15;20.58;98915.63;4996009;28;20398;-75
2022/06/27 09:20:49;;;;;;;4.35;1.20;;;;;;;39.12;20.93;98917.03;4995907;28;20036;-75
2022/06/27 09:23:39;;;;;;;4.78;1.45;;;;;;;38.96;21.08;98910.22;5028083;28;20040;-77
2022/06/27 09:26:06;;;;;;;2.78;1.23;;;;;;;38.72;21.19;98900.28;5013210;28;20513;-76
2022/06/27 09:28:53;;;;;;;3.47;1.20;;;;;;;38.67;21.30;98890.25;4995549;28;20068;-76
2022/06/27 09:31:37;;;;;;;7.50;1.30;;;;;;;38.52;21.62;98894.03;5013443;28;20022;-76
2022/06/27 09:34:16;;;;;;;4.25;1.33;;;;;;;38.44;21.57;98894.69;5012365;28;20034;-76
2022/06/27 09:36:43;;;;;;;4.68;1.60;;;;;;;38.37;21.60;98894.28;4995943;28;20026;-76
2022/06/27 09:39:22;;;;;;;3.63;1.40;;;;;;;38.28;21.77;98898.78;5011390;28;20390;-76
2022/06/27 09:41:56;;;;;;;2.47;1.08;;;;;;;38.11;21.91;98894.66;5011562;28;20061;-74
2022/06/27 09:44:24;;;;;;;2.58;1.30;;;;;;;37.96;22.29;98895.66;5012512;28;20036;-74
2022/06/27 09:47:04;;;;;;;1.88;1.20;;;;;;;37.77;22.21;98886.69;5011327;28;20038;-75
2022/06/27 09:49:36;;;;;;;1.80;1.20;;;;;;;37.66;22.15;98888.69;5011954;28;20022;-75
2022/06/27 09:52:07;;;;;;;1.85;1.33;;;;;;;37.48;22.76;98893.81;5012324;28;20037;-75
2022/06/27 09:54:34;;;;;;;4.57;1.15;;;;;;;37.43;22.83;98893.06;4995761;28;20030;-76
2022/06/27 09:57:00;;;;;;;4.55;1.35;;;;;;;37.38;23.21;98885.78;4994980;28;20041;-75
2022/06/27 09:59:26;;;;;;;3.25;1.30;;;;;;;37.33;23.19;98883.13;4995367;28;20543;-75
2022/06/27 10:01:53;;;;;;;1.70;1.10;;;;;;;37.19;23.27;98874.81;5011423;28;20054;-75
2022/06/27 10:04:18;;;;;;;4.30;1.20;;;;;;;37.08;23.25;98881.47;4995210;28;20501;-76
2022/06/27 10:06:44;;;;;;;5.32;1.33;;;;;;;36.96;23.50;98878.31;4994765;28;20038;-75
2022/06/27 10:09:10;;;;;;;3.05;1.30;;;;;;;36.84;23.97;98876.00;5010909;28;20049;-74
2022/06/27 10:11:38;;;;;;;2.60;1.38;;;;;;;36.76;23.84;98877.44;5011322;28;20030;-75
2022/06/27 10:14:32;;;;;;;3.03;1.30;;;;;;;36.66;23.88;98877.50;5011088;28;20428;-74
2022/06/27 10:16:58;;;;;;;2.58;1.25;;;;;;;36.60;24.28;98874.03;5025135;28;20072;-75
2022/06/27 10:19:28;;;;;;;2.50;1.40;;;;;;;36.54;24.42;98869.72;4995358;28;20033;-75
2022/06/27 10:21:54;;;;;;;5.93;1.20;;;;;;;36.45;24.14;98869.50;5011573;28;20116;-76
2022/06/27 10:24:21;;;;;;;2.00;1.08;;;;;;;36.35;24.41;98856.03;4995028;28;20030;-76
2022/06/27 10:26:48;;;;;;;2.83;1.23;;;;;;;36.26;24.32;98855.00;5012355;28;20030;-76
2022/06/27 10:29:30;;;;;;;4.28;1.25;;;;;;;36.10;24.61;98848.84;4994851;28;20034;-76
2022/06/27 10:31:59;;;;;;;5.65;1.25;;;;;;;36.01;24.31;98849.44;5011380;28;20033;-75
2022/06/27 10:34:39;;;;;;;2.42;1.13;;;;;;;35.86;24.75;98866.63;4994791;28;20116;-74
2022/06/27 10:37:26;;;;;;;3.95;1.40;;;;;;;35.73;24.67;98863.72;5027366;28;20044;-75
2022/06/27 10:39:52;;;;;;;3.72;1.23;;;;;;;35.60;24.83;98857.00;5012015;28;20033;-75
2022/06/27 10:42:46;;;;;;;2.00;1.50;;;;;;;35.55;25.17;98854.28;4994432;28;20038;-74
2022/06/27 10:45:21;;;;;;;2.42;1.27;;;;;;;35.45;25.50;98855.97;5010929;28;20481;-74
2022/06/27 10:47:54;;;;;;;2.42;1.30;;;;;;;35.36;25.21;98846.81;5012285;28;20030;-76
2022/06/27 10:50:21;;;;;;;2.17;1.13;;;;;;;35.28;25.17;98836.50;5010628;28;20034;-76
2022/06/27 10:52:47;;;;;;;3.47;1.40;;;;;;;35.25;25.85;98853.31;5011490;28;20452;-75
2022/06/27 10:55:25;;;;;;;5.85;1.27;;;;;;;35.12;25.86;98852.00;4997503;28;20038;-74
2022/06/27 10:57:51;;;;;;;4.65;1.60;;;;;;;35.07;26.04;98843.88;4998250;28;20036;-74
2022/06/27 11:00:39;;;;;;;2.33;1.27;;;;;;;35.02;25.74;98847.41;4997766;28;20417;-75
2022/06/27 11:03:05;;;;;;;3.65;1.30;;;;;;;34.89;26.47;98842.56;5015942;28;20034;-76
2022/06/27 11:05:50;;;;;;;5.28;1.40;;;;;;;34.90;26.01;98846.88;4998195;28;20033;-76
2022/06/27 11:08:15;;;;;;;4.35;1.48;;;;;;;34.82;26.66;98850.97;5014121;28;20137;-75
2022/06/27 11:10:42;;;;;;;5.82;1.40;;;;;;;34.76;26.25;98844.75;5014308;28;20109;-74
2022/06/27 11:13:08;;;;;;;2.17;1.30;;;;;;;34.64;26.12;98843.41;5014083;28;20072;-76
2022/06/27 11:15:34;;;;;;;3.85;1.60;;;;;;;34.71;26.00;98838.50;4998233;28;20401;-75
2022/06/27 11:17:59;;;;;;;3.30;1.40;;;;;;;34.65;26.45;98836.88;5014163;28;20470;-75
2022/06/27 11:20:25;;;;;;;4.00;1.35;;;;;;;34.59;26.23;98833.38;4997940;28;20034;-75
2022/06/27 11:22:58;;;;;;;4.18;1.50;;;;;;;34.65;26.08;98826.03;5013764;28;20077;-75
2022/06/27 11:25:27;;;;;;;2.88;1.30;;;;;;;34.47;26.09;98827.41;5013883;28;20030;-76
2022/06/27 11:27:53;;;;;;;2.92;1.25;;;;;;;34.36;25.83;98832.81;5014312;28;20029;-76
2022/06/27 11:33:26;;;;;;;5.07;1.60;;;;;;;34.32;26.31;98826.34;5014181;28;20036;-75
2022/06/27 11:35:53;;;;;;;5.07;1.50;;;;;;;34.34;26.31;98818.75;5013854;28;20117;-75
2022/06/27 11:38:29;;;;;;;2.33;1.30;;;;;;;34.32;26.09;98823.63;4997621;28;20037;-76
2022/06/27 11:41:03;;;;;;;3.13;1.50;;;;;;;34.29;25.90;98826.88;4997391;28;20034;-74